createdAt,value
2023-05-03T00:01:02.957Z,215413.00
2023-05-03T00:07:05.460Z,215385.00
2023-05-03T00:13:08.138Z,215295.00
2023-05-03T00:19:20.736Z,215217.00
2023-05-03T00:25:30.705Z,215066.00
2023-05-03T00:31:32.936Z,214966.00
2023-05-03T00:37:35.280Z,214808.00
2023-05-03T00:43:38.175Z,214703.00
2023-05-03T00:49:41.628Z,214598.00
2023-05-03T00:55:46.100Z,214488.00
2023-05-03T01:01:53.700Z,214424.00
2023-05-03T01:08:02.780Z,214307.00
2023-05-03T01:14:37.632Z,214244.00
2023-05-03T01:20:46.772Z,214155.00
2023-05-03T01:26:49.288Z,214113.00
2023-05-03T01:33:06.902Z,214119.00
2023-05-03T01:39:14.925Z,214025.00
2023-05-03T01:45:18.220Z,213963.00
2023-05-03T01:51:20.549Z,213934.00
2023-05-03T01:57:23.228Z,213908.00
2023-05-03T02:03:25.567Z,213852.00
2023-05-03T02:09:28.006Z,213789.00
2023-05-03T02:15:30.264Z,213762.00
2023-05-03T02:21:34.575Z,213742.00
2023-05-03T02:27:37.095Z,213700.00
2023-05-03T02:33:39.690Z,213667.00
2023-05-03T02:39:42.150Z,213645.00
2023-05-03T02:45:45.623Z,213603.00
2023-05-03T02:51:49.146Z,213561.00
2023-05-03T02:57:51.927Z,213481.00
2023-05-03T03:03:56.304Z,213481.00
2023-05-03T03:09:58.778Z,213501.00
2023-05-03T03:16:01.142Z,213561.00
2023-05-03T03:22:03.653Z,213577.00
2023-05-03T03:28:07.094Z,213589.00
2023-05-03T03:34:13.017Z,213603.00
2023-05-03T03:40:15.995Z,213681.00
2023-05-03T03:46:20.294Z,213762.00
2023-05-03T03:52:27.111Z,213797.00
2023-05-03T03:58:29.733Z,213894.00
2023-05-03T04:04:32.549Z,213963.00
2023-05-03T04:10:35.522Z,214011.00
2023-05-03T04:16:38.366Z,214092.00
2023-05-03T04:22:42.540Z,214183.00
2023-05-03T04:28:47.435Z,214288.00
2023-05-03T04:34:54.046Z,214454.00
2023-05-03T04:40:59.006Z,214648.00
2023-05-03T04:47:02.169Z,214753.00
2023-05-03T04:53:04.985Z,215058.00
2023-05-03T04:59:11.023Z,215182.00
2023-05-03T05:05:13.690Z,215349.00
2023-05-03T05:11:17.192Z,215469.00
2023-05-03T05:17:20.484Z,215756.00
2023-05-03T05:23:25.326Z,216064.00
2023-05-03T05:29:27.698Z,216549.00
2023-05-03T05:35:30.742Z,216860.00
2023-05-03T05:41:33.061Z,217475.00
2023-05-03T05:47:35.721Z,217538.00
2023-05-03T05:53:39.581Z,218832.00
2023-05-03T05:59:43.059Z,219163.00
2023-05-03T06:05:45.453Z,220182.00
2023-05-03T06:11:47.903Z,222797.00
2023-05-03T06:17:50.833Z,222367.00
2023-05-03T06:23:53.805Z,222324.00
2023-05-03T06:29:56.664Z,221933.00
2023-05-03T06:35:59.861Z,221546.00
2023-05-03T06:42:03.148Z,220833.00
2023-05-03T06:48:11.671Z,219949.00
2023-05-03T06:54:15.066Z,219572.00
2023-05-03T07:00:18.064Z,219305.00
2023-05-03T07:06:20.340Z,219247.00
2023-05-03T07:12:28.003Z,219521.00
2023-05-03T07:18:30.676Z,220368.00
2023-05-03T07:24:32.817Z,220232.00
2023-05-03T07:30:34.992Z,220944.00
2023-05-03T07:36:37.671Z,221163.00
2023-05-03T07:42:39.948Z,220354.00
2023-05-03T07:48:45.910Z,220392.00
2023-05-03T07:54:48.404Z,220368.00
2023-05-03T08:00:51.026Z,220427.00
2023-05-03T08:06:53.585Z,220310.00
2023-05-03T08:12:56.310Z,219962.00
2023-05-03T08:18:59.619Z,219905.00
2023-05-03T08:25:01.993Z,220405.00
2023-05-03T08:31:05.532Z,219905.00
2023-05-03T08:37:08.119Z,219703.00
2023-05-03T08:43:10.961Z,219430.00
2023-05-03T08:49:14.168Z,219572.00
2023-05-03T08:55:17.507Z,221267.00
2023-05-03T09:01:20.898Z,220704.00
2023-05-03T09:07:23.423Z,220645.00
2023-05-03T09:13:32.576Z,220609.00
2023-05-03T09:19:50.920Z,220536.00
2023-05-03T09:25:53.575Z,220487.00
2023-05-03T09:32:06.403Z,220509.00
2023-05-03T09:38:08.953Z,220087.00
2023-05-03T09:44:11.475Z,220049.00
2023-05-03T09:50:13.805Z,220101.00
2023-05-03T09:56:16.632Z,219919.00
2023-05-03T10:02:19.473Z,220000.00
2023-05-03T10:08:38.062Z,220302.00
2023-05-03T10:14:46.430Z,220196.00
2023-05-03T10:20:57.898Z,220114.00
2023-05-03T10:27:00.278Z,219949.00
2023-05-03T10:33:32.446Z,220536.00
2023-05-03T10:39:34.673Z,221397.00
2023-05-03T10:45:39.215Z,221758.00
2023-05-03T10:51:43.550Z,222343.00
2023-05-03T10:57:47.297Z,221654.00
2023-05-03T11:03:55.510Z,221433.00
2023-05-03T11:09:58.210Z,222037.00
2023-05-03T11:16:00.580Z,221609.00
2023-05-03T11:22:03.316Z,221359.00
2023-05-03T11:28:06.209Z,221359.00
2023-05-03T11:34:09.085Z,221337.00
2023-05-03T11:40:18.655Z,220849.00
2023-05-03T11:46:24.835Z,220479.00
2023-05-03T11:52:28.506Z,220841.00
2023-05-03T11:58:31.322Z,220849.00
2023-05-03T12:04:34.332Z,220704.00
2023-05-03T12:10:38.364Z,220463.00
2023-05-03T12:16:52.553Z,220639.00
2023-05-03T12:22:58.754Z,220501.00
2023-05-03T12:29:02.465Z,220558.00
2023-05-03T12:35:07.987Z,220930.00
2023-05-03T12:41:14.523Z,220996.00
2023-05-03T12:47:27.923Z,220924.00
2023-05-03T12:53:31.885Z,221033.00
2023-05-03T12:59:42.152Z,220974.00
2023-05-03T13:05:45.845Z,221096.00
2023-05-03T13:11:50.434Z,220952.00
2023-05-03T13:17:52.901Z,220982.00
2023-05-03T13:23:54.972Z,220756.00
2023-05-03T13:29:57.340Z,220819.00
2023-05-03T13:35:59.538Z,220827.00
2023-05-03T13:42:02.643Z,220833.00
2023-05-03T13:48:13.568Z,220952.00
2023-05-03T13:54:21.636Z,220960.00
2023-05-03T14:00:23.944Z,220857.00
2023-05-03T14:06:26.277Z,220754.00
2023-05-03T14:12:28.675Z,220841.00
2023-05-03T14:18:30.992Z,220756.00
2023-05-03T14:24:33.408Z,220639.00
2023-05-03T14:30:36.704Z,220726.00
2023-05-03T14:36:43.936Z,220960.00
2023-05-03T14:42:46.493Z,220960.00
2023-05-03T14:48:48.755Z,220864.00
2023-05-03T14:54:51.551Z,220938.00
2023-05-03T15:00:53.927Z,220982.00
2023-05-03T15:06:56.090Z,221068.00
2023-05-03T15:12:58.591Z,220982.00
2023-05-03T15:19:01.929Z,220876.00
2023-05-03T15:25:04.264Z,220691.00
2023-05-03T15:31:06.744Z,220587.00
2023-05-03T15:37:12.525Z,220493.00
2023-05-03T15:43:14.833Z,220398.00
2023-05-03T15:49:17.157Z,220316.00
2023-05-03T15:55:20.362Z,220210.00
2023-05-03T16:01:23.757Z,220114.00
2023-05-03T16:07:27.437Z,220049.00
2023-05-03T16:13:30.409Z,219899.00
2023-05-03T16:19:32.774Z,219833.00
2023-05-03T16:25:34.922Z,219733.00
2023-05-03T16:31:37.474Z,219652.00
2023-05-03T16:37:41.116Z,219507.00
2023-05-03T16:43:43.404Z,219357.00
2023-05-03T16:49:45.743Z,219199.00
2023-05-03T16:55:48.302Z,219075.00
2023-05-03T17:01:50.512Z,218953.00
2023-05-03T17:07:53.041Z,218860.00
2023-05-03T17:13:55.229Z,218788.00
2023-05-03T17:19:57.366Z,218682.00
2023-05-03T17:25:59.883Z,218631.00
2023-05-03T17:32:03.607Z,218567.00
2023-05-03T17:38:06.224Z,218531.00
2023-05-03T17:44:08.725Z,218486.00
2023-05-03T17:50:13.450Z,218458.00
2023-05-03T17:56:17.111Z,218367.00
2023-05-03T18:02:19.326Z,218310.00
2023-05-03T18:08:21.681Z,218214.00
2023-05-03T18:14:23.953Z,218051.00
2023-05-03T18:20:26.463Z,217943.00
2023-05-03T18:26:28.719Z,217845.00
2023-05-03T18:32:30.979Z,217765.00
2023-05-03T18:38:33.282Z,217765.00
2023-05-03T18:44:35.634Z,217744.00
2023-05-03T18:50:43.398Z,217633.00
2023-05-03T18:56:45.980Z,217524.00
2023-05-03T19:02:48.625Z,217235.00
2023-05-03T19:08:51.062Z,217151.00
2023-05-03T19:14:53.335Z,217143.00
2023-05-03T19:20:56.945Z,217071.00
2023-05-03T19:26:59.861Z,217036.00
2023-05-03T19:33:02.249Z,216994.00
2023-05-03T19:39:04.646Z,216964.00
2023-05-03T19:45:07.328Z,216928.00
2023-05-03T19:51:17.171Z,216908.00
2023-05-03T19:57:19.814Z,216675.00
2023-05-03T20:03:23.556Z,216607.00
2023-05-03T20:09:26.141Z,216521.00
2023-05-03T20:15:29.275Z,216507.00
2023-05-03T20:21:32.604Z,216521.00
2023-05-03T20:27:34.930Z,216472.00
2023-05-03T20:33:37.280Z,216472.00
2023-05-03T20:39:40.704Z,216458.00
2023-05-03T20:45:43.027Z,216430.00
2023-05-03T20:51:45.698Z,216430.00
2023-05-03T20:57:48.411Z,216414.00
2023-05-03T21:03:50.790Z,216345.00
2023-05-03T21:09:52.996Z,216268.00
2023-05-03T21:15:56.405Z,216191.00
2023-05-03T21:21:58.690Z,216147.00
2023-05-03T21:28:00.969Z,216086.00
2023-05-03T21:34:04.488Z,216015.00
2023-05-03T21:40:07.591Z,215979.00
2023-05-03T21:46:10.197Z,215945.00
2023-05-03T21:52:14.053Z,215915.00
2023-05-03T21:58:16.781Z,215943.00
2023-05-03T22:04:19.430Z,215902.00
2023-05-03T22:10:21.618Z,215888.00
2023-05-03T22:16:24.002Z,215888.00
2023-05-03T22:22:26.719Z,215833.00
2023-05-03T22:28:29.091Z,215880.00
2023-05-03T22:34:31.468Z,215819.00
2023-05-03T22:40:33.959Z,215748.00
2023-05-03T22:46:36.274Z,215734.00
2023-05-03T22:52:38.774Z,215656.00
2023-05-03T22:58:41.385Z,215489.00
2023-05-03T23:04:44.019Z,215369.00
2023-05-03T23:10:46.457Z,215323.00
2023-05-03T23:16:48.844Z,215289.00
2023-05-03T23:22:51.382Z,215239.00
2023-05-03T23:28:53.629Z,215239.00
2023-05-03T23:34:56.258Z,215261.00
2023-05-03T23:40:58.545Z,215239.00
2023-05-03T23:47:01.093Z,215217.00
2023-05-03T23:53:04.149Z,215204.00
2023-05-03T23:59:07.348Z,215217.00
